Time,TemperatureF,DewpointF,PressureIn,WindDirection,WindDirectionDegrees,WindSpeedMPH,WindSpeedGustMPH,Humidity,HourlyPrecipIn,Conditions,Clouds,dailyrainin,SoftwareType,DateUTC
2013-04-04 00:00:00,33.5,22.3,30.17,South,175,0.0,1.0,63,0.00,,---,0.00,VWS V14.00,2013-04-04 05:00:00,
2013-04-04 00:05:00,33.8,22.2,30.17,South,175,0.0,1.0,62,0.00,,---,0.00,VWS V14.00,2013-04-04 05:05:00,
2013-04-04 00:10:00,33.7,22.1,30.17,South,175,0.0,1.0,62,0.00,,---,0.00,VWS V14.00,2013-04-04 05:10:00,
2013-04-04 00:15:00,33.5,21.9,30.17,South,175,0.0,0.0,62,0.00,,---,0.00,VWS V14.00,2013-04-04 05:15:00,
2013-04-04 00:20:00,33.6,22.0,30.17,South,175,0.0,1.0,62,0.00,,---,0.00,VWS V14.00,2013-04-04 05:20:00,
2013-04-04 00:25:00,33.6,22.4,30.17,South,175,0.0,0.0,63,0.00,,---,0.00,VWS V14.00,2013-04-04 05:25:00,
2013-04-04 00:30:00,33.3,21.7,30.17,South,175,0.0,0.0,62,0.00,,---,0.00,VWS V14.00,2013-04-04 05:30:00,
2013-04-04 00:35:00,33.3,21.7,30.17,South,175,0.0,0.0,62,0.00,,---,0.00,VWS V14.00,2013-04-04 05:35:00,
2013-04-04 00:40:00,33.3,22.1,30.17,South,175,0.0,0.0,63,0.00,,---,0.00,VWS V14.00,2013-04-04 05:40:00,
2013-04-04 00:45:00,32.9,22.1,30.17,South,175,0.0,0.0,64,0.00,,---,0.00,VWS V14.00,2013-04-04 05:45:00,
2013-04-04 00:50:00,32.3,21.9,30.16,South,175,0.0,0.0,65,0.00,,---,0.00,VWS V14.00,2013-04-04 05:50:00,
2013-04-04 00:55:00,31.9,21.9,30.16,South,175,0.0,0.0,66,0.00,,---,0.00,VWS V14.00,2013-04-04 05:55:00,
2013-04-04 01:00:00,32.0,21.9,30.16,South,175,0.0,0.0,66,0.00,,---,0.00,VWS V14.00,2013-04-04 06:00:00,
2013-04-04 01:05:00,32.3,22.2,30.15,South,175,0.0,0.0,66,0.00,,---,0.00,VWS V14.00,2013-04-04 06:05:00,
2013-04-04 01:10:00,32.7,22.2,30.15,South,175,0.0,0.0,65,0.00,,---,0.00,VWS V14.00,2013-04-04 06:10:00,
2013-04-04 01:15:00,32.8,22.3,30.15,South,175,0.0,0.0,65,0.00,,---,0.00,VWS V14.00,2013-04-04 06:15:00,
2013-04-04 01:20:00,33.0,22.5,30.15,South,175,2.0,2.0,65,0.00,,---,0.00,VWS V14.00,2013-04-04 06:20:00,
2013-04-04 01:25:00,33.1,22.6,30.15,South,175,0.0,2.0,65,0.00,,---,0.00,VWS V14.00,2013-04-04 06:25:00,
2013-04-04 01:30:00,33.0,22.5,30.15,WNW,288,0.0,2.0,65,0.00,,---,0.00,VWS V14.00,2013-04-04 06:30:00,
2013-04-04 01:35:00,32.9,22.4,30.14,WNW,288,0.0,2.0,65,0.00,,---,0.00,VWS V14.00,2013-04-04 06:35:00,
2013-04-04 01:40:00,33.1,22.6,30.14,WNW,287,0.0,0.0,65,0.00,,---,0.00,VWS V14.00,2013-04-04 06:40:00,
2013-04-04 01:45:00,32.9,22.4,30.14,WNW,287,0.0,0.0,65,0.00,,---,0.00,VWS V14.00,2013-04-04 06:45:00,
2013-04-04 01:50:00,32.8,22.3,30.14,WNW,288,0.0,1.0,65,0.00,,---,0.00,VWS V14.00,2013-04-04 06:50:00,
2013-04-04 01:55:00,32.9,22.4,30.14,WNW,288,0.0,2.0,65,0.00,,---,0.00,VWS V14.00,2013-04-04 06:55:00,
2013-04-04 02:00:00,32.9,22.4,30.14,WNW,288,0.0,0.0,65,0.00,,---,0.00,VWS V14.00,2013-04-04 07:00:00,
2013-04-04 02:05:00,32.5,22.1,30.13,WNW,287,0.0,0.0,65,0.00,,---,0.00,VWS V14.00,2013-04-04 07:05:00,
2013-04-04 02:10:00,32.3,22.2,30.13,WNW,288,0.0,0.0,66,0.00,,---,0.00,VWS V14.00,2013-04-04 07:10:00,
2013-04-04 02:15:00,32.2,22.1,30.13,WNW,288,0.0,1.0,66,0.00,,---,0.00,VWS V14.00,2013-04-04 07:15:00,
2013-04-04 02:20:00,32.1,22.0,30.13,WNW,287,0.0,0.0,66,0.00,,---,0.00,VWS V14.00,2013-04-04 07:20:00,
2013-04-04 02:25:00,31.9,22.2,30.12,WNW,288,0.0,0.0,67,0.00,,---,0.00,VWS V14.00,2013-04-04 07:25:00,
2013-04-04 02:30:00,31.9,22.2,30.12,WNW,288,0.0,0.0,67,0.00,,---,0.00,VWS V14.00,2013-04-04 07:30:00,
2013-04-04 02:35:00,31.9,22.5,30.12,WNW,287,0.0,0.0,68,0.00,,---,0.00,VWS V14.00,2013-04-04 07:35:00,
2013-04-04 02:40:00,32.1,22.4,30.11,SW,221,0.0,0.0,67,0.00,,---,0.00,VWS V14.00,2013-04-04 07:40:00,
2013-04-04 02:45:00,32.2,22.1,30.11,SW,221,0.0,0.0,66,0.00,,---,0.00,VWS V14.00,2013-04-04 07:45:00,
2013-04-04 02:50:00,32.1,22.0,30.11,SW,221,0.0,0.0,66,0.00,,---,0.00,VWS V14.00,2013-04-04 07:50:00,
2013-04-04 02:56:00,32.2,22.1,30.11,SW,221,1.0,1.0,66,0.00,,---,0.00,VWS V14.00,2013-04-04 07:56:00,
2013-04-04 03:00:00,32.7,21.9,30.11,SSW,211,0.0,1.0,64,0.00,,---,0.00,VWS V14.00,2013-04-04 08:00:00,
2013-04-04 03:06:00,32.8,22.0,30.11,SSW,211,0.0,2.0,64,0.00,,---,0.00,VWS V14.00,2013-04-04 08:06:00,
2013-04-04 03:11:00,32.9,21.7,30.10,SSW,210,0.0,0.0,63,0.00,,---,0.00,VWS V14.00,2013-04-04 08:11:00,
2013-04-04 03:16:00,33.1,21.5,30.10,SSW,202,1.0,2.0,62,0.00,,---,0.00,VWS V14.00,2013-04-04 08:16:00,
2013-04-04 03:21:00,33.2,21.6,30.10,WNW,292,0.0,0.0,62,0.00,,---,0.00,VWS V14.00,2013-04-04 08:21:00,
2013-04-04 03:26:00,33.1,21.5,30.10,WNW,286,0.0,1.0,62,0.00,,---,0.00,VWS V14.00,2013-04-04 08:26:00,
2013-04-04 03:31:00,33.0,21.4,30.10,WNW,286,0.0,0.0,62,0.00,,---,0.00,VWS V14.00,2013-04-04 08:31:00,
2013-04-04 03:36:00,32.9,21.7,30.10,WNW,286,0.0,0.0,63,0.00,,---,0.00,VWS V14.00,2013-04-04 08:36:00,
2013-04-04 03:41:00,32.7,21.5,30.10,WNW,286,0.0,0.0,63,0.00,,---,0.00,VWS V14.00,2013-04-04 08:41:00,
2013-04-04 03:46:00,32.5,21.7,30.10,South,182,0.0,5.0,64,0.00,,---,0.00,VWS V14.00,2013-04-04 08:46:00,
2013-04-04 03:51:00,32.7,21.5,30.09,South,182,0.0,0.0,63,0.00,,---,0.00,VWS V14.00,2013-04-04 08:51:00,
2013-04-04 03:56:00,32.9,21.3,30.09,West,263,0.0,0.0,62,0.00,,---,0.00,VWS V14.00,2013-04-04 08:56:00,
2013-04-04 04:01:00,32.8,21.2,30.09,West,263,0.0,0.0,62,0.00,,---,0.00,VWS V14.00,2013-04-04 09:01:00,
2013-04-04 04:06:00,32.6,21.4,30.09,West,263,0.0,0.0,63,0.00,,---,0.00,VWS V14.00,2013-04-04 09:06:00,
2013-04-04 04:11:00,32.4,21.2,30.09,West,263,0.0,0.0,63,0.00,,---,0.00,VWS V14.00,2013-04-04 09:11:00,
2013-04-04 04:16:00,32.5,21.3,30.09,WSW,248,0.0,1.0,63,0.00,,---,0.00,VWS V14.00,2013-04-04 09:16:00,
2013-04-04 04:21:00,32.8,21.6,30.09,West,269,0.0,2.0,63,0.00,,---,0.00,VWS V14.00,2013-04-04 09:21:00,
2013-04-04 04:27:00,33.0,21.8,30.09,South,191,2.0,6.0,63,0.00,,---,0.00,VWS V14.00,2013-04-04 09:27:00,
2013-04-04 04:32:00,33.2,21.6,30.09,SSW,194,0.0,0.0,62,0.00,,---,0.00,VWS V14.00,2013-04-04 09:32:00,
2013-04-04 04:37:00,33.2,21.6,30.09,SW,215,1.0,1.0,62,0.00,,---,0.00,VWS V14.00,2013-04-04 09:37:00,
2013-04-04 04:42:00,33.1,21.5,30.09,WNW,296,0.0,1.0,62,0.00,,---,0.00,VWS V14.00,2013-04-04 09:42:00,
2013-04-04 04:47:00,33.2,21.6,30.09,WSW,249,0.0,0.0,62,0.00,,---,0.00,VWS V14.00,2013-04-04 09:47:00,
2013-04-04 04:52:00,33.0,21.4,30.09,WSW,249,1.0,2.0,62,0.00,,---,0.00,VWS V14.00,2013-04-04 09:52:00,
2013-04-04 04:57:00,33.1,21.5,30.09,South,179,5.0,5.0,62,0.00,,---,0.00,VWS V14.00,2013-04-04 09:57:00,
2013-04-04 05:02:00,33.1,21.5,30.09,SSW,211,1.0,2.0,62,0.00,,---,0.00,VWS V14.00,2013-04-04 10:02:00,
2013-04-04 05:07:00,33.0,21.8,30.09,SW,218,4.0,4.0,63,0.00,,---,0.00,VWS V14.00,2013-04-04 10:07:00,
2013-04-04 05:12:00,33.0,21.8,30.09,West,263,0.0,1.0,63,0.00,,---,0.00,VWS V14.00,2013-04-04 10:12:00,
2013-04-04 05:17:00,32.8,21.6,30.09,West,263,0.0,0.0,63,0.00,,---,0.00,VWS V14.00,2013-04-04 10:17:00,
2013-04-04 05:22:00,32.5,21.7,30.09,West,263,0.0,0.0,64,0.00,,---,0.00,VWS V14.00,2013-04-04 10:22:00,
2013-04-04 05:27:00,32.3,21.5,30.09,SW,225,0.0,2.0,64,0.00,,---,0.00,VWS V14.00,2013-04-04 10:27:00,
2013-04-04 05:32:00,32.4,21.6,30.09,SW,225,0.0,2.0,64,0.00,,---,0.00,VWS V14.00,2013-04-04 10:32:00,
2013-04-04 05:37:00,32.4,21.6,30.09,SW,225,0.0,0.0,64,0.00,,---,0.00,VWS V14.00,2013-04-04 10:37:00,
2013-04-04 05:42:00,32.2,21.8,30.09,SW,225,0.0,0.0,65,0.00,,---,0.00,VWS V14.00,2013-04-04 10:42:00,
2013-04-04 05:47:00,31.8,21.8,30.09,SW,225,0.0,1.0,66,0.00,,---,0.00,VWS V14.00,2013-04-04 10:47:00,
2013-04-04 05:52:00,31.5,21.5,30.08,SW,225,0.0,0.0,66,0.00,,---,0.00,VWS V14.00,2013-04-04 10:52:00,
2013-04-04 05:57:00,31.6,21.6,30.08,SW,225,0.0,0.0,66,0.00,,---,0.00,VWS V14.00,2013-04-04 10:57:00,
2013-04-04 06:02:00,31.8,21.8,30.08,SW,225,0.0,2.0,66,0.00,,---,0.00,VWS V14.00,2013-04-04 11:02:00,
2013-04-04 06:07:00,32.1,22.0,30.08,SW,233,0.0,0.0,66,0.00,,---,0.00,VWS V14.00,2013-04-04 11:07:00,
2013-04-04 06:12:00,32.3,21.9,30.08,West,272,2.0,2.0,65,0.00,,---,0.00,VWS V14.00,2013-04-04 11:12:00,
2013-04-04 06:17:00,32.6,22.1,30.08,West,269,1.0,2.0,65,0.00,,---,0.00,VWS V14.00,2013-04-04 11:17:00,
2013-04-04 06:22:00,32.9,22.1,30.07,West,270,0.0,1.0,64,0.00,,---,0.00,VWS V14.00,2013-04-04 11:22:00,
2013-04-04 06:25:00,32.9,22.1,30.07,West,269,0.0,2.0,64,0.00,,---,0.00,VWS V14.00,2013-04-04 11:25:00,
2013-04-04 06:27:00,32.9,22.1,30.07,West,270,0.0,0.0,64,0.00,,---,0.00,VWS V14.00,2013-04-04 11:27:00,
2013-04-04 06:30:00,33.0,22.2,30.07,West,270,2.0,2.0,64,0.00,,---,0.00,VWS V14.00,2013-04-04 11:30:00,
2013-04-04 06:32:00,33.0,21.8,30.07,West,269,1.0,2.0,63,0.00,,---,0.00,VWS V14.00,2013-04-04 11:32:00,
2013-04-04 06:35:00,33.1,21.9,30.07,West,269,0.0,2.0,63,0.00,,---,0.00,VWS V14.00,2013-04-04 11:35:00,
2013-04-04 06:37:00,33.1,21.9,30.07,West,269,0.0,0.0,63,0.00,,---,0.00,VWS V14.00,2013-04-04 11:37:00,
2013-04-04 06:42:00,33.2,22.0,30.07,West,269,0.0,0.0,63,0.00,,---,0.00,VWS V14.00,2013-04-04 11:42:00,
2013-04-04 06:47:00,33.3,22.1,30.07,West,269,0.0,1.0,63,0.00,,---,0.00,VWS V14.00,2013-04-04 11:47:00,
2013-04-04 06:50:00,33.4,21.8,30.07,West,276,0.0,1.0,62,0.00,,---,0.00,VWS V14.00,2013-04-04 11:50:00,
2013-04-04 06:52:00,33.5,21.9,30.07,West,276,0.0,0.0,62,0.00,,---,0.00,VWS V14.00,2013-04-04 11:52:00,
2013-04-04 06:55:00,33.7,22.1,30.07,West,277,0.0,2.0,62,0.00,,---,0.00,VWS V14.00,2013-04-04 11:55:00,
2013-04-04 06:57:00,33.8,22.2,30.07,West,277,0.0,0.0,62,0.00,,---,0.00,VWS V14.00,2013-04-04 11:57:00,
2013-04-04 07:00:00,33.9,21.9,30.07,West,281,0.0,2.0,61,0.00,,---,0.00,VWS V14.00,2013-04-04 12:00:00,
2013-04-04 07:02:00,34.1,22.1,30.07,West,281,1.0,1.0,61,0.00,,---,0.00,VWS V14.00,2013-04-04 12:02:00,
2013-04-04 07:05:00,34.3,22.3,30.07,West,281,0.0,1.0,61,0.00,,---,0.00,VWS V14.00,2013-04-04 12:05:00,
2013-04-04 07:07:00,34.4,22.4,30.07,West,280,0.0,0.0,61,0.00,,---,0.00,VWS V14.00,2013-04-04 12:07:00,
2013-04-04 07:10:00,34.6,22.5,30.07,West,280,0.0,2.0,61,0.00,,---,0.00,VWS V14.00,2013-04-04 12:10:00,
2013-04-04 07:12:00,34.7,22.2,30.07,West,281,0.0,0.0,60,0.00,,---,0.00,VWS V14.00,2013-04-04 12:12:00,
2013-04-04 07:15:00,35.0,22.9,30.06,West,281,0.0,0.0,61,0.00,,---,0.00,VWS V14.00,2013-04-04 12:15:00,
2013-04-04 07:17:00,35.2,22.7,30.06,West,281,0.0,0.0,60,0.00,,---,0.00,VWS V14.00,2013-04-04 12:17:00,
2013-04-04 07:20:00,35.4,22.5,30.06,West,281,0.0,0.0,59,0.00,,---,0.00,VWS V14.00,2013-04-04 12:20:00,
2013-04-04 07:22:00,35.7,22.4,30.06,West,280,0.0,1.0,58,0.00,,---,0.00,VWS V14.00,2013-04-04 12:22:00,
2013-04-04 07:25:00,36.0,22.7,30.06,West,280,0.0,1.0,58,0.00,,---,0.00,VWS V14.00,2013-04-04 12:25:00,
2013-04-04 07:27:00,36.2,22.5,30.06,West,280,3.0,3.0,57,0.00,,---,0.00,VWS V14.00,2013-04-04 12:27:00,
2013-04-04 07:30:00,36.5,22.7,30.06,West,280,0.0,3.0,57,0.00,,---,0.00,VWS V14.00,2013-04-04 12:30:00,
2013-04-04 07:32:00,36.7,22.9,30.06,West,281,0.0,0.0,57,0.00,,---,0.00,VWS V14.00,2013-04-04 12:32:00,
2013-04-04 07:35:00,36.9,22.7,30.06,WSW,239,3.0,3.0,56,0.00,,---,0.00,VWS V14.00,2013-04-04 12:35:00,
2013-04-04 07:37:00,37.0,22.8,30.06,SSW,197,1.0,4.0,56,0.00,,---,0.00,VWS V14.00,2013-04-04 12:37:00,
2013-04-04 07:40:00,37.0,22.4,30.06,South,173,3.0,4.0,55,0.00,,---,0.00,VWS V14.00,2013-04-04 12:40:00,
2013-04-04 07:43:00,37.1,22.4,30.06,West,264,0.0,4.0,55,0.00,,---,0.00,VWS V14.00,2013-04-04 12:43:00,
2013-04-04 07:45:00,37.3,22.6,30.05,SSW,213,5.0,5.0,55,0.00,,---,0.00,VWS V14.00,2013-04-04 12:45:00,
2013-04-04 07:48:00,37.4,22.7,30.06,SW,234,0.0,5.0,55,0.00,,---,0.00,VWS V14.00,2013-04-04 12:48:00,
2013-04-04 07:50:00,37.7,23.0,30.06,WSW,254,0.0,5.0,55,0.00,,---,0.00,VWS V14.00,2013-04-04 12:50:00,
2013-04-04 07:53:00,38.1,22.9,30.06,WSW,252,0.0,0.0,54,0.00,,---,0.00,VWS V14.00,2013-04-04 12:53:00,
2013-04-04 07:55:00,38.2,22.6,30.06,West,271,3.0,3.0,53,0.00,,---,0.00,VWS V14.00,2013-04-04 12:55:00,
2013-04-04 07:58:00,38.2,22.6,30.06,WSW,240,1.0,3.0,53,0.00,,---,0.00,VWS V14.00,2013-04-04 12:58:00,
2013-04-04 08:00:00,38.2,22.6,30.06,West,272,5.0,7.0,53,0.00,,---,0.00,VWS V14.00,2013-04-04 13:00:00,
2013-04-04 08:03:00,38.2,22.6,30.05,SSE,155,0.0,5.0,53,0.00,,---,0.00,VWS V14.00,2013-04-04 13:03:00,
2013-04-04 08:05:00,38.2,22.6,30.05,SSW,192,1.0,5.0,53,0.00,,---,0.00,VWS V14.00,2013-04-04 13:05:00,
2013-04-04 08:08:00,38.5,23.3,30.05,SSW,192,0.0,2.0,54,0.00,,---,0.00,VWS V14.00,2013-04-04 13:08:00,
2013-04-04 08:10:00,38.8,23.6,30.05,SSW,192,1.0,2.0,54,0.00,,---,0.00,VWS V14.00,2013-04-04 13:10:00,
2013-04-04 08:13:00,39.1,23.0,30.05,SW,215,1.0,5.0,52,0.00,,---,0.00,VWS V14.00,2013-04-04 13:13:00,
2013-04-04 08:15:00,39.3,23.2,30.05,WSW,242,2.0,5.0,52,0.00,,---,0.00,VWS V14.00,2013-04-04 13:15:00,
2013-04-04 08:18:00,39.6,23.9,30.04,WSW,242,0.0,2.0,53,0.00,,---,0.00,VWS V14.00,2013-04-04 13:18:00,
2013-04-04 08:20:00,39.8,23.6,30.04,South,182,2.0,3.0,52,0.00,,---,0.00,VWS V14.00,2013-04-04 13:20:00,
2013-04-04 08:23:00,39.9,22.8,30.04,SSW,203,4.0,5.0,50,0.00,,---,0.00,VWS V14.00,2013-04-04 13:23:00,
2013-04-04 08:25:00,39.8,23.6,30.04,SSE,152,3.0,5.0,52,0.00,,---,0.00,VWS V14.00,2013-04-04 13:25:00,
2013-04-04 08:28:00,40.0,23.4,30.04,SSW,209,1.0,3.0,51,0.00,,---,0.00,VWS V14.00,2013-04-04 13:28:00,
2013-04-04 08:30:00,40.2,23.5,30.04,West,261,0.0,3.0,51,0.00,,---,0.00,VWS V14.00,2013-04-04 13:30:00,
2013-04-04 08:33:00,40.5,23.3,30.04,SSW,205,0.0,1.0,50,0.00,,---,0.00,VWS V14.00,2013-04-04 13:33:00,
2013-04-04 08:35:00,40.7,24.0,30.03,South,190,2.0,2.0,51,0.00,,---,0.00,VWS V14.00,2013-04-04 13:35:00,
2013-04-04 08:38:00,40.7,23.0,30.03,SSW,207,2.0,9.0,49,0.00,,---,0.00,VWS V14.00,2013-04-04 13:38:00,
2013-04-04 08:40:00,40.7,23.0,30.03,SE,146,1.0,9.0,49,0.00,,---,0.00,VWS V14.00,2013-04-04 13:40:00,
2013-04-04 08:43:00,40.9,24.2,30.04,SSE,149,2.0,6.0,51,0.00,,---,0.00,VWS V14.00,2013-04-04 13:43:00,
2013-04-04 08:45:00,41.1,23.9,30.03,WNW,289,3.0,6.0,50,0.00,,---,0.00,VWS V14.00,2013-04-04 13:45:00,
2013-04-04 08:48:00,41.3,23.6,30.03,SSW,197,4.0,4.0,49,0.00,,---,0.00,VWS V14.00,2013-04-04 13:48:00,
2013-04-04 08:50:00,41.4,24.2,30.03,SSW,203,5.0,7.0,50,0.00,,---,0.00,VWS V14.00,2013-04-04 13:50:00,
2013-04-04 08:53:00,41.4,23.7,30.03,South,187,1.0,5.0,49,0.00,,---,0.00,VWS V14.00,2013-04-04 13:53:00,
2013-04-04 08:55:00,41.5,23.8,30.03,South,171,0.0,5.0,49,0.00,,---,0.00,VWS V14.00,2013-04-04 13:55:00,
2013-04-04 08:58:00,41.8,24.1,30.03,SSW,207,1.0,7.0,49,0.00,,---,0.00,VWS V14.00,2013-04-04 13:58:00,
2013-04-04 09:00:00,41.8,24.1,30.03,SSW,198,7.0,7.0,49,0.00,,---,0.00,VWS V14.00,2013-04-04 14:00:00,
2013-04-04 09:03:00,41.6,23.4,30.03,SSE,153,4.0,7.0,48,0.00,,---,0.00,VWS V14.00,2013-04-04 14:03:00,
2013-04-04 09:05:00,41.8,24.1,30.02,SSW,207,6.0,7.0,49,0.00,,---,0.00,VWS V14.00,2013-04-04 14:05:00,
2013-04-04 09:08:00,41.9,24.1,30.02,South,178,4.0,7.0,49,0.00,,---,0.00,VWS V14.00,2013-04-04 14:08:00,
2013-04-04 09:10:00,42.1,24.3,30.02,SSW,194,3.0,7.0,49,0.00,,---,0.00,VWS V14.00,2013-04-04 14:10:00,
2013-04-04 09:13:00,42.3,24.5,30.02,South,173,2.0,11.0,49,0.00,,---,0.00,VWS V14.00,2013-04-04 14:13:00,
2013-04-04 09:15:00,42.3,24.0,30.02,South,188,4.0,11.0,48,0.00,,---,0.00,VWS V14.00,2013-04-04 14:15:00,
2013-04-04 09:18:00,42.4,24.1,30.02,South,189,6.0,6.0,48,0.00,,---,0.00,VWS V14.00,2013-04-04 14:18:00,
2013-04-04 09:20:00,42.6,24.8,30.02,NNW,331,0.0,6.0,49,0.00,,---,0.00,VWS V14.00,2013-04-04 14:20:00,
2013-04-04 09:23:00,42.9,24.6,30.01,South,186,6.0,12.0,48,0.00,,---,0.00,VWS V14.00,2013-04-04 14:23:00,
2013-04-04 09:25:00,42.9,25.1,30.01,SSW,196,7.0,12.0,49,0.00,,---,0.00,VWS V14.00,2013-04-04 14:25:00,
2013-04-04 09:28:00,43.1,25.3,30.01,West,275,0.0,7.0,49,0.00,,---,0.00,VWS V14.00,2013-04-04 14:28:00,
2013-04-04 09:30:00,43.3,24.4,30.01,West,276,4.0,7.0,47,0.00,,---,0.00,VWS V14.00,2013-04-04 14:30:00,
2013-04-04 09:34:00,43.7,24.8,30.01,SSE,167,6.0,6.0,47,0.00,,---,0.00,VWS V14.00,2013-04-04 14:34:00,
2013-04-04 09:35:00,43.9,24.5,30.01,West,281,7.0,13.0,46,0.00,,---,0.00,VWS V14.00,2013-04-04 14:35:00,
2013-04-04 09:39:00,44.1,25.2,30.01,SW,233,6.0,11.0,47,0.00,,---,0.00,VWS V14.00,2013-04-04 14:39:00,
2013-04-04 09:40:00,44.2,25.3,30.01,SW,221,4.0,11.0,47,0.00,,---,0.00,VWS V14.00,2013-04-04 14:40:00,
2013-04-04 09:44:00,44.4,24.9,30.01,South,191,3.0,10.0,46,0.00,,---,0.00,VWS V14.00,2013-04-04 14:44:00,
2013-04-04 09:45:00,44.6,25.1,30.01,SW,217,1.0,10.0,46,0.00,,---,0.00,VWS V14.00,2013-04-04 14:45:00,
2013-04-04 09:49:00,45.0,25.5,30.01,WSW,256,4.0,6.0,46,0.00,,---,0.00,VWS V14.00,2013-04-04 14:49:00,
2013-04-04 09:50:00,45.0,25.0,30.01,South,187,4.0,7.0,45,0.00,,---,0.00,VWS V14.00,2013-04-04 14:50:00,
2013-04-04 09:54:00,45.3,25.8,30.00,SW,215,2.0,9.0,46,0.00,,---,0.00,VWS V14.00,2013-04-04 14:54:00,
2013-04-04 09:55:00,45.3,24.7,30.00,SSW,202,0.0,12.0,44,0.00,,---,0.00,VWS V14.00,2013-04-04 14:55:00,
2013-04-04 09:59:00,45.6,25.5,30.00,SW,229,6.0,11.0,45,0.00,,---,0.00,VWS V14.00,2013-04-04 14:59:00,
2013-04-04 10:00:00,45.8,25.7,30.00,West,278,6.0,11.0,45,0.00,,---,0.00,VWS V14.00,2013-04-04 15:00:00,
2013-04-04 10:04:00,45.9,25.2,30.00,SSE,155,0.0,11.0,44,0.00,,---,0.00,VWS V14.00,2013-04-04 15:04:00,
2013-04-04 10:05:00,46.0,25.9,30.00,WSW,248,1.0,11.0,45,0.00,,---,0.00,VWS V14.00,2013-04-04 15:05:00,
2013-04-04 10:09:00,46.6,25.9,30.00,South,175,1.0,4.0,44,0.00,,---,0.00,VWS V14.00,2013-04-04 15:09:00,
2013-04-04 10:10:00,46.9,26.1,30.00,SSW,206,6.0,6.0,44,0.00,,---,0.00,VWS V14.00,2013-04-04 15:10:00,
2013-04-04 10:14:00,46.9,25.0,30.00,SE,145,1.0,15.0,42,0.00,,---,0.00,VWS V14.00,2013-04-04 15:14:00,
2013-04-04 10:15:00,46.9,25.6,30.00,South,188,11.0,15.0,43,0.00,,---,0.00,VWS V14.00,2013-04-04 15:15:00,
2013-04-04 10:19:00,47.0,26.2,30.00,West,266,3.0,11.0,44,0.00,,---,0.00,VWS V14.00,2013-04-04 15:19:00,
2013-04-04 10:20:00,47.0,26.2,30.00,SSE,162,3.0,11.0,44,0.00,,---,0.00,VWS V14.00,2013-04-04 15:20:00,
2013-04-04 10:24:00,47.2,25.9,30.00,West,263,6.0,10.0,43,0.00,,---,0.00,VWS V14.00,2013-04-04 15:24:00,
2013-04-04 10:25:00,47.2,25.9,30.00,SSE,153,6.0,10.0,43,0.00,,---,0.00,VWS V14.00,2013-04-04 15:25:00,
2013-04-04 10:29:00,47.5,25.6,30.00,West,263,9.0,11.0,42,0.00,,---,0.00,VWS V14.00,2013-04-04 15:29:00,
2013-04-04 10:30:00,47.6,25.7,30.00,SW,223,8.0,11.0,42,0.00,,---,0.00,VWS V14.00,2013-04-04 15:30:00,
2013-04-04 10:34:00,47.9,25.9,30.00,SSW,198,9.0,9.0,42,0.00,,---,0.00,VWS V14.00,2013-04-04 15:34:00,
2013-04-04 10:35:00,47.9,25.9,30.00,WNW,295,3.0,9.0,42,0.00,,---,0.00,VWS V14.00,2013-04-04 15:35:00,
2013-04-04 10:39:00,48.3,25.7,30.00,SSE,159,11.0,11.0,41,0.00,,---,0.00,VWS V14.00,2013-04-04 15:39:00,
2013-04-04 10:40:00,48.2,26.2,30.00,SW,222,3.0,11.0,42,0.00,,---,0.00,VWS V14.00,2013-04-04 15:40:00,
2013-04-04 10:44:00,48.2,26.2,30.00,SSW,206,9.0,11.0,42,0.00,,---,0.00,VWS V14.00,2013-04-04 15:44:00,
2013-04-04 10:45:00,48.1,25.5,30.00,South,180,10.0,11.0,41,0.00,,---,0.00,VWS V14.00,2013-04-04 15:45:00,
2013-04-04 10:50:00,48.5,26.5,30.00,SSW,210,6.0,10.0,42,0.00,,---,0.00,VWS V14.00,2013-04-04 15:50:00,
2013-04-04 10:55:00,48.6,26.6,29.99,NW,309,7.0,12.0,42,0.00,,---,0.00,VWS V14.00,2013-04-04 15:55:00,
2013-04-04 11:00:00,48.7,26.1,29.99,SSW,202,4.0,10.0,41,0.00,,---,0.00,VWS V14.00,2013-04-04 16:00:00,
2013-04-04 11:05:00,49.6,27.5,29.98,NNW,334,0.0,10.0,42,0.00,,---,0.00,VWS V14.00,2013-04-04 16:05:00,
2013-04-04 11:10:00,49.7,27.6,29.98,West,275,2.0,10.0,42,0.00,,---,0.00,VWS V14.00,2013-04-04 16:10:00,
2013-04-04 11:15:00,50.4,27.0,29.98,South,188,6.0,10.0,40,0.00,,---,0.00,VWS V14.00,2013-04-04 16:15:00,
2013-04-04 11:20:00,50.7,27.9,29.98,South,175,8.0,8.0,41,0.00,,---,0.00,VWS V14.00,2013-04-04 16:20:00,
2013-04-04 11:25:00,51.4,28.5,29.97,NW,316,3.0,9.0,41,0.00,,---,0.00,VWS V14.00,2013-04-04 16:25:00,
2013-04-04 11:30:00,51.8,28.9,29.97,SSE,167,1.0,5.0,41,0.00,,---,0.00,VWS V14.00,2013-04-04 16:30:00,
2013-04-04 11:35:00,51.4,27.3,29.97,SSE,167,12.0,14.0,39,0.00,,---,0.00,VWS V14.00,2013-04-04 16:35:00,
2013-04-04 11:40:00,51.2,28.3,29.97,South,182,10.0,12.0,41,0.00,,---,0.00,VWS V14.00,2013-04-04 16:40:00,
2013-04-04 11:45:00,51.5,29.2,29.97,SW,230,0.0,13.0,42,0.00,,---,0.00,VWS V14.00,2013-04-04 16:45:00,
2013-04-04 11:50:00,52.2,29.2,29.97,West,259,7.0,9.0,41,0.00,,---,0.00,VWS V14.00,2013-04-04 16:50:00,
2013-04-04 11:55:00,52.2,29.2,29.97,West,267,4.0,9.0,41,0.00,,---,0.00,VWS V14.00,2013-04-04 16:55:00,
2013-04-04 12:00:00,52.6,29.6,29.97,West,260,4.0,5.0,41,0.00,,---,0.00,VWS V14.00,2013-04-04 17:00:00,
2013-04-04 12:05:00,52.7,30.3,29.97,South,180,2.0,10.0,42,0.00,,---,0.00,VWS V14.00,2013-04-04 17:05:00,
2013-04-04 12:10:00,52.4,28.8,29.97,South,171,6.0,12.0,40,0.00,,---,0.00,VWS V14.00,2013-04-04 17:10:00,
2013-04-04 12:15:00,52.8,30.4,29.96,ESE,119,0.0,11.0,42,0.00,,---,0.00,VWS V14.00,2013-04-04 17:15:00,
2013-04-04 12:20:00,53.2,30.1,29.96,South,182,5.0,7.0,41,0.00,,---,0.00,VWS V14.00,2013-04-04 17:20:00,
2013-04-04 12:25:00,52.8,29.2,29.95,South,188,6.0,9.0,40,0.00,,---,0.00,VWS V14.00,2013-04-04 17:25:00,
2013-04-04 12:30:00,52.4,29.4,29.95,SSE,157,3.0,12.0,41,0.00,,---,0.00,VWS V14.00,2013-04-04 17:30:00,
2013-04-04 12:35:00,52.7,29.7,29.95,SSW,195,7.0,12.0,41,0.00,,---,0.00,VWS V14.00,2013-04-04 17:35:00,
2013-04-04 12:40:00,53.3,30.2,29.94,SSE,153,1.0,7.0,41,0.00,,---,0.00,VWS V14.00,2013-04-04 17:40:00,
2013-04-04 12:45:00,53.7,30.6,29.94,SW,218,7.0,7.0,41,0.00,,---,0.00,VWS V14.00,2013-04-04 17:45:00,
2013-04-04 12:50:00,53.7,30.0,29.93,SW,223,7.0,12.0,40,0.00,,---,0.00,VWS V14.00,2013-04-04 17:50:00,
2013-04-04 12:55:00,54.0,30.2,29.93,South,184,9.0,11.0,40,0.00,,---,0.00,VWS V14.00,2013-04-04 17:55:00,
2013-04-04 13:00:00,54.1,29.7,29.93,South,180,4.0,5.0,39,0.00,,---,0.00,VWS V14.00,2013-04-04 18:00:00,
2013-04-04 13:05:00,54.5,30.7,29.92,SSW,198,6.0,9.0,40,0.00,,---,0.00,VWS V14.00,2013-04-04 18:05:00,
2013-04-04 13:10:00,54.6,30.8,29.92,South,190,9.0,10.0,40,0.00,,---,0.00,VWS V14.00,2013-04-04 18:10:00,
2013-04-04 13:15:00,54.9,31.7,29.92,South,173,1.0,3.0,41,0.00,,---,0.00,VWS V14.00,2013-04-04 18:15:00,
2013-04-04 13:20:00,55.5,32.2,29.91,WNW,302,2.0,6.0,41,0.00,,---,0.00,VWS V14.00,2013-04-04 18:20:00,
2013-04-04 13:25:00,55.9,32.0,29.91,SSW,203,11.0,11.0,40,0.00,,---,0.00,VWS V14.00,2013-04-04 18:25:00,
2013-04-04 13:30:00,56.1,32.7,29.91,SW,226,6.0,6.0,41,0.00,,---,0.00,VWS V14.00,2013-04-04 18:30:00,
2013-04-04 13:35:00,56.7,32.0,29.90,West,265,3.0,6.0,39,0.00,,---,0.00,VWS V14.00,2013-04-04 18:35:00,
2013-04-04 13:36:00,56.7,32.0,29.90,WSW,244,3.0,3.0,39,0.00,,---,0.00,VWS V14.00,2013-04-04 18:36:00,
2013-04-04 13:40:00,56.7,32.0,29.90,South,184,6.0,6.0,39,0.00,,---,0.00,VWS V14.00,2013-04-04 18:40:00,
2013-04-04 13:41:00,56.7,32.0,29.90,South,188,6.0,6.0,39,0.00,,---,0.00,VWS V14.00,2013-04-04 18:41:00,
2013-04-04 13:45:00,56.6,32.0,29.90,WSW,250,3.0,9.0,39,0.00,,---,0.00,VWS V14.00,2013-04-04 18:45:00,
2013-04-04 13:46:00,56.6,32.0,29.90,SSW,207,4.0,4.0,39,0.00,,---,0.00,VWS V14.00,2013-04-04 18:46:00,
2013-04-04 13:50:00,56.7,32.0,29.90,NW,311,2.0,6.0,39,0.00,,---,0.00,VWS V14.00,2013-04-04 18:50:00,
2013-04-04 13:51:00,56.7,32.7,29.89,NNW,329,3.0,3.0,40,0.00,,---,0.00,VWS V14.00,2013-04-04 18:51:00,
2013-04-04 13:55:00,56.7,32.7,29.89,WNW,299,3.0,9.0,40,0.00,,---,0.00,VWS V14.00,2013-04-04 18:55:00,
2013-04-04 13:56:00,56.6,33.2,29.89,SSW,199,8.0,8.0,41,0.00,,---,0.00,VWS V14.00,2013-04-04 18:56:00,
2013-04-04 14:00:00,56.6,32.6,29.89,West,269,7.0,10.0,40,0.00,,---,0.00,VWS V14.00,2013-04-04 19:00:00,
2013-04-04 14:01:00,56.6,32.6,29.89,WSW,244,2.0,7.0,40,0.00,,---,0.00,VWS V14.00,2013-04-04 19:01:00,
2013-04-04 14:05:00,56.9,32.8,29.89,WNW,289,0.0,7.0,40,0.00,,---,0.00,VWS V14.00,2013-04-04 19:05:00,
2013-04-04 14:06:00,56.9,32.8,29.89,SSE,162,2.0,2.0,40,0.00,,---,0.00,VWS V14.00,2013-04-04 19:06:00,
2013-04-04 14:10:00,56.8,32.8,29.88,SW,233,0.0,14.0,40,0.00,,---,0.00,VWS V14.00,2013-04-04 19:10:00,
2013-04-04 14:11:00,56.8,32.8,29.88,East,90,2.0,2.0,40,0.00,,---,0.00,VWS V14.00,2013-04-04 19:11:00,
2013-04-04 14:15:00,56.4,31.8,29.89,WNW,286,1.0,12.0,39,0.00,,---,0.00,VWS V14.00,2013-04-04 19:15:00,
2013-04-04 14:16:00,56.3,32.3,29.89,West,281,10.0,10.0,40,0.00,,---,0.00,VWS V14.00,2013-04-04 19:16:00,
2013-04-04 14:20:00,56.1,33.3,29.88,West,261,1.0,10.0,42,0.00,,---,0.00,VWS V14.00,2013-04-04 19:20:00,
2013-04-04 14:21:00,56.2,33.4,29.88,West,260,5.0,5.0,42,0.00,,---,0.00,VWS V14.00,2013-04-04 19:21:00,
2013-04-04 14:25:00,56.5,33.1,29.88,WNW,290,5.0,10.0,41,0.00,,---,0.00,VWS V14.00,2013-04-04 19:25:00,
2013-04-04 14:26:00,56.6,33.2,29.88,West,273,5.0,5.0,41,0.00,,---,0.00,VWS V14.00,2013-04-04 19:26:00,
2013-04-04 14:30:00,57.3,33.2,29.88,SSE,155,5.0,10.0,40,0.00,,---,0.00,VWS V14.00,2013-04-04 19:30:00,
2013-04-04 14:31:00,57.3,33.2,29.88,West,265,2.0,6.0,40,0.00,,---,0.00,VWS V14.00,2013-04-04 19:31:00,
2013-04-04 14:35:00,57.1,33.0,29.88,SSE,165,4.0,12.0,40,0.00,,---,0.00,VWS V14.00,2013-04-04 19:35:00,
2013-04-04 14:36:00,57.1,33.0,29.88,SSE,165,4.0,12.0,40,0.00,,---,0.00,VWS V14.00,2013-04-04 19:36:00,
2013-04-04 14:40:00,57.0,33.5,29.88,NW,315,2.0,9.0,41,0.00,,---,0.00,VWS V14.00,2013-04-04 19:40:00,
2013-04-04 14:41:00,57.1,33.6,29.88,NNW,345,0.0,2.0,41,0.00,,---,0.00,VWS V14.00,2013-04-04 19:41:00,
2013-04-04 14:45:00,57.7,34.2,29.88,WNW,303,4.0,6.0,41,0.00,,---,0.00,VWS V14.00,2013-04-04 19:45:00,
2013-04-04 14:46:00,57.8,34.9,29.88,NW,304,3.0,4.0,42,0.00,,---,0.00,VWS V14.00,2013-04-04 19:46:00,
2013-04-04 14:50:00,58.5,34.3,29.88,NW,325,2.0,6.0,40,0.00,,---,0.00,VWS V14.00,2013-04-04 19:50:00,
2013-04-04 14:51:00,58.6,34.4,29.88,NW,305,2.0,2.0,40,0.00,,---,0.00,VWS V14.00,2013-04-04 19:51:00,
2013-04-04 14:55:00,58.3,34.1,29.88,WNW,302,0.0,7.0,40,0.00,,---,0.00,VWS V14.00,2013-04-04 19:55:00,
2013-04-04 14:56:00,58.4,35.4,29.88,NW,313,0.0,0.0,42,0.00,,---,0.00,VWS V14.00,2013-04-04 19:56:00,
2013-04-04 15:00:00,58.8,35.2,29.88,West,279,4.0,6.0,41,0.00,,---,0.00,VWS V14.00,2013-04-04 20:00:00,
2013-04-04 15:01:00,58.7,34.5,29.88,South,184,0.0,4.0,40,0.00,,---,0.00,VWS V14.00,2013-04-04 20:01:00,
2013-04-04 15:05:00,58.3,34.7,29.87,WNW,296,2.0,4.0,41,0.00,,---,0.00,VWS V14.00,2013-04-04 20:05:00,
2013-04-04 15:06:00,58.2,34.6,29.87,NNW,328,5.0,5.0,41,0.00,,---,0.00,VWS V14.00,2013-04-04 20:06:00,
2013-04-04 15:10:00,57.6,34.1,29.87,SW,232,5.0,8.0,41,0.00,,---,0.00,VWS V14.00,2013-04-04 20:10:00,
2013-04-04 15:11:00,57.5,34.0,29.87,WNW,296,4.0,5.0,41,0.00,,---,0.00,VWS V14.00,2013-04-04 20:11:00,
2013-04-04 15:15:00,57.1,33.6,29.87,WNW,285,0.0,5.0,41,0.00,,---,0.00,VWS V14.00,2013-04-04 20:15:00,
2013-04-04 15:16:00,57.1,34.8,29.87,West,277,0.0,0.0,43,0.00,,---,0.00,VWS V14.00,2013-04-04 20:16:00,
2013-04-04 15:20:00,57.1,34.2,29.87,SW,225,4.0,4.0,42,0.00,,---,0.00,VWS V14.00,2013-04-04 20:20:00,
2013-04-04 15:21:00,57.0,34.2,29.86,SW,234,0.0,4.0,42,0.00,,---,0.00,VWS V14.00,2013-04-04 20:21:00,
2013-04-04 15:25:00,56.7,33.9,29.86,NW,305,2.0,6.0,42,0.00,,---,0.00,VWS V14.00,2013-04-04 20:25:00,
2013-04-04 15:26:00,56.6,34.4,29.86,WNW,284,0.0,2.0,43,0.00,,---,0.00,VWS V14.00,2013-04-04 20:26:00,
2013-04-04 15:30:00,56.2,34.6,29.86,WSW,249,0.0,2.0,44,0.00,,---,0.00,VWS V14.00,2013-04-04 20:30:00,
2013-04-04 15:32:00,56.2,34.6,29.87,SSW,201,6.0,6.0,44,0.00,,---,0.00,VWS V14.00,2013-04-04 20:32:00,
2013-04-04 15:35:00,56.1,35.6,29.87,West,279,0.0,6.0,46,0.00,,---,0.00,VWS V14.00,2013-04-04 20:35:00,
2013-04-04 15:36:00,56.2,35.2,29.87,West,265,0.0,2.0,45,0.00,,---,0.00,VWS V14.00,2013-04-04 20:36:00,
2013-04-04 15:40:00,56.3,35.8,29.86,West,268,0.0,2.0,46,0.00,,---,0.00,VWS V14.00,2013-04-04 20:40:00,
2013-04-04 15:42:00,56.3,35.8,29.86,WSW,257,1.0,1.0,46,0.00,,---,0.00,VWS V14.00,2013-04-04 20:42:00,
2013-04-04 15:45:00,56.6,36.1,29.86,SW,217,2.0,2.0,46,0.00,,---,0.00,VWS V14.00,2013-04-04 20:45:00,
2013-04-04 15:47:00,56.7,35.6,29.86,West,265,0.0,2.0,45,0.00,,---,0.00,VWS V14.00,2013-04-04 20:47:00,
2013-04-04 15:50:00,56.7,35.0,29.86,SW,218,0.0,10.0,44,0.00,,---,0.00,VWS V14.00,2013-04-04 20:50:00,
2013-04-04 15:52:00,56.6,35.0,29.86,West,265,4.0,4.0,44,0.00,,---,0.00,VWS V14.00,2013-04-04 20:52:00,
2013-04-04 15:55:00,56.6,35.0,29.85,WNW,288,0.0,6.0,44,0.00,,---,0.00,VWS V14.00,2013-04-04 20:55:00,
2013-04-04 15:57:00,56.6,35.0,29.86,NNW,329,3.0,3.0,44,0.00,,---,0.00,VWS V14.00,2013-04-04 20:57:00,
2013-04-04 16:00:00,56.6,35.0,29.85,WNW,284,0.0,3.0,44,0.00,,---,0.00,VWS V14.00,2013-04-04 21:00:00,
2013-04-04 16:02:00,56.7,35.6,29.86,SSW,211,4.0,4.0,45,0.00,,---,0.00,VWS V14.00,2013-04-04 21:02:00,
2013-04-04 16:05:00,56.8,35.7,29.86,WNW,299,4.0,4.0,45,0.00,,---,0.00,VWS V14.00,2013-04-04 21:05:00,
2013-04-04 16:07:00,56.9,35.2,29.86,WNW,296,4.0,4.0,44,0.00,,---,0.00,VWS V14.00,2013-04-04 21:07:00,
2013-04-04 16:10:00,57.3,36.2,29.85,West,270,2.0,6.0,45,0.00,,---,0.00,VWS V14.00,2013-04-04 21:10:00,
2013-04-04 16:12:00,57.5,36.3,29.86,WNW,283,0.0,2.0,45,0.00,,---,0.00,VWS V14.00,2013-04-04 21:12:00,
2013-04-04 16:15:00,57.8,36.6,29.86,WNW,298,3.0,7.0,45,0.00,,---,0.00,VWS V14.00,2013-04-04 21:15:00,
2013-04-04 16:17:00,57.9,36.7,29.86,NW,309,0.0,10.0,45,0.00,,---,0.00,VWS V14.00,2013-04-04 21:17:00,
2013-04-04 16:20:00,57.8,36.0,29.86,NNW,334,9.0,10.0,44,0.00,,---,0.00,VWS V14.00,2013-04-04 21:20:00,
2013-04-04 16:22:00,57.7,36.0,29.86,NW,325,6.0,9.0,44,0.00,,---,0.00,VWS V14.00,2013-04-04 21:22:00,
2013-04-04 16:25:00,57.5,36.3,29.86,WNW,291,2.0,9.0,45,0.00,,---,0.00,VWS V14.00,2013-04-04 21:25:00,
2013-04-04 16:27:00,57.5,36.9,29.86,WNW,288,0.0,2.0,46,0.00,,---,0.00,VWS V14.00,2013-04-04 21:27:00,
2013-04-04 16:30:00,57.6,35.9,29.86,WNW,287,3.0,6.0,44,0.00,,---,0.00,VWS V14.00,2013-04-04 21:30:00,
2013-04-04 16:32:00,57.5,35.8,29.86,WSW,257,5.0,7.0,44,0.00,,---,0.00,VWS V14.00,2013-04-04 21:32:00,
2013-04-04 16:35:00,57.5,35.8,29.86,WNW,302,6.0,7.0,44,0.00,,---,0.00,VWS V14.00,2013-04-04 21:35:00,
2013-04-04 16:37:00,57.5,36.3,29.86,WNW,291,2.0,6.0,45,0.00,,---,0.00,VWS V14.00,2013-04-04 21:37:00,
2013-04-04 16:40:00,57.6,36.4,29.86,NNW,334,0.0,6.0,45,0.00,,---,0.00,VWS V14.00,2013-04-04 21:40:00,
2013-04-04 16:42:00,57.6,36.4,29.86,WNW,284,2.0,6.0,45,0.00,,---,0.00,VWS V14.00,2013-04-04 21:42:00,
2013-04-04 16:45:00,57.5,36.3,29.86,NNW,336,6.0,6.0,45,0.00,,---,0.00,VWS V14.00,2013-04-04 21:45:00,
2013-04-04 16:47:00,57.4,36.2,29.86,NW,318,2.0,6.0,45,0.00,,---,0.00,VWS V14.00,2013-04-04 21:47:00,
2013-04-04 16:50:00,57.2,36.6,29.86,SW,226,0.0,6.0,46,0.00,,---,0.00,VWS V14.00,2013-04-04 21:50:00,
2013-04-04 16:52:00,57.1,36.0,29.86,WSW,250,3.0,6.0,45,0.00,,---,0.00,VWS V14.00,2013-04-04 21:52:00,
2013-04-04 16:55:00,56.9,36.3,29.86,West,277,1.0,6.0,46,0.00,,---,0.00,VWS V14.00,2013-04-04 21:55:00,
2013-04-04 16:57:00,56.7,36.7,29.86,NW,319,0.0,9.0,47,0.00,,---,0.00,VWS V14.00,2013-04-04 21:57:00,
2013-04-04 17:00:00,56.7,36.7,29.86,NNW,338,12.0,12.0,47,0.00,,---,0.00,VWS V14.00,2013-04-04 22:00:00,
2013-04-04 17:02:00,56.5,37.1,29.87,NNW,344,4.0,12.0,48,0.00,,---,0.00,VWS V14.00,2013-04-04 22:02:00,
2013-04-04 17:05:00,56.4,37.0,29.87,NW,312,4.0,12.0,48,0.00,,---,0.00,VWS V14.00,2013-04-04 22:05:00,
2013-04-04 17:07:00,56.2,36.8,29.87,NW,323,6.0,8.0,48,0.00,,---,0.00,VWS V14.00,2013-04-04 22:07:00,
2013-04-04 17:10:00,56.0,37.1,29.87,WNW,302,4.0,9.0,49,0.00,,---,0.00,VWS V14.00,2013-04-04 22:10:00,
2013-04-04 17:12:00,55.9,37.0,29.87,WNW,300,0.0,10.0,49,0.00,,---,0.00,VWS V14.00,2013-04-04 22:12:00,
2013-04-04 17:15:00,55.7,37.4,29.87,NW,308,2.0,11.0,50,0.00,,---,0.00,VWS V14.00,2013-04-04 22:15:00,
2013-04-04 17:17:00,55.5,36.7,29.87,NW,319,15.0,15.0,49,0.00,,---,0.00,VWS V14.00,2013-04-04 22:17:00,
2013-04-04 17:20:00,55.1,36.3,29.87,NNW,331,4.0,15.0,49,0.00,,---,0.00,VWS V14.00,2013-04-04 22:20:00,
2013-04-04 17:22:00,55.1,36.8,29.87,NW,312,6.0,6.0,50,0.00,,---,0.00,VWS V14.00,2013-04-04 22:22:00,
2013-04-04 17:25:00,55.0,36.7,29.87,NW,322,12.0,12.0,50,0.00,,---,0.00,VWS V14.00,2013-04-04 22:25:00,
2013-04-04 17:27:00,55.0,36.7,29.87,NW,316,2.0,12.0,50,0.00,,---,0.00,VWS V14.00,2013-04-04 22:27:00,
2013-04-04 17:30:00,54.9,36.6,29.87,NW,317,11.0,12.0,50,0.00,,---,0.00,VWS V14.00,2013-04-04 22:30:00,
2013-04-04 17:32:00,55.0,37.2,29.87,NNW,346,0.0,11.0,51,0.00,,---,0.00,VWS V14.00,2013-04-04 22:32:00,
2013-04-04 17:35:00,55.0,36.7,29.88,NW,315,10.0,11.0,50,0.00,,---,0.00,VWS V14.00,2013-04-04 22:35:00,
2013-04-04 17:37:00,54.9,36.6,29.87,NW,315,13.0,13.0,50,0.00,,---,0.00,VWS V14.00,2013-04-04 22:37:00,
2013-04-04 17:40:00,54.7,36.4,29.87,West,276,10.0,13.0,50,0.00,,---,0.00,VWS V14.00,2013-04-04 22:40:00,
2013-04-04 17:42:00,54.6,36.8,29.87,WNW,288,2.0,10.0,51,0.00,,---,0.00,VWS V14.00,2013-04-04 22:42:00,
2013-04-04 17:45:00,54.6,36.8,29.87,WNW,296,1.0,10.0,51,0.00,,---,0.00,VWS V14.00,2013-04-04 22:45:00,
2013-04-04 17:47:00,54.6,36.3,29.88,NW,312,5.0,5.0,50,0.00,,---,0.00,VWS V14.00,2013-04-04 22:47:00,
2013-04-04 17:50:00,54.5,36.8,29.88,West,271,5.0,5.0,51,0.00,,---,0.00,VWS V14.00,2013-04-04 22:50:00,
2013-04-04 17:52:00,54.4,36.2,29.88,WNW,303,0.0,5.0,50,0.00,,---,0.00,VWS V14.00,2013-04-04 22:52:00,
2013-04-04 17:55:00,54.4,36.2,29.88,NW,305,2.0,5.0,50,0.00,,---,0.00,VWS V14.00,2013-04-04 22:55:00,
2013-04-04 17:57:00,54.3,36.6,29.88,WNW,298,1.0,2.0,51,0.00,,---,0.00,VWS V14.00,2013-04-04 22:57:00,
2013-04-04 18:00:00,54.1,36.4,29.88,WNW,299,2.0,5.0,51,0.00,,---,0.00,VWS V14.00,2013-04-04 23:00:00,
2013-04-04 18:02:00,53.7,36.0,29.88,NW,319,0.0,7.0,51,0.00,,---,0.00,VWS V14.00,2013-04-04 23:02:00,
2013-04-04 18:05:00,53.5,35.8,29.88,NNW,341,2.0,7.0,51,0.00,,---,0.00,VWS V14.00,2013-04-04 23:05:00,
2013-04-04 18:07:00,53.3,35.7,29.88,WNW,296,3.0,6.0,51,0.00,,---,0.00,VWS V14.00,2013-04-04 23:07:00,
2013-04-04 18:10:00,53.3,35.7,29.88,West,279,1.0,6.0,51,0.00,,---,0.00,VWS V14.00,2013-04-04 23:10:00,
2013-04-04 18:12:00,53.2,35.6,29.89,WNW,297,0.0,1.0,51,0.00,,---,0.00,VWS V14.00,2013-04-04 23:12:00,
2013-04-04 18:15:00,53.3,36.1,29.89,WSW,242,1.0,1.0,52,0.00,,---,0.00,VWS V14.00,2013-04-04 23:15:00,
2013-04-04 18:18:00,53.2,36.0,29.89,WNW,296,0.0,3.0,52,0.00,,---,0.00,VWS V14.00,2013-04-04 23:18:00,
2013-04-04 18:20:00,53.2,36.0,29.88,NW,316,3.0,3.0,52,0.00,,---,0.00,VWS V14.00,2013-04-04 23:20:00,
2013-04-04 18:23:00,53.1,35.5,29.88,NNW,342,0.0,4.0,51,0.00,,---,0.00,VWS V14.00,2013-04-04 23:23:00,
2013-04-04 18:25:00,53.1,36.0,29.88,WNW,300,3.0,4.0,52,0.00,,---,0.00,VWS V14.00,2013-04-04 23:25:00,
2013-04-04 18:28:00,53.0,36.3,29.88,NW,306,0.0,3.0,53,0.00,,---,0.00,VWS V14.00,2013-04-04 23:28:00,
2013-04-04 18:30:00,52.9,36.2,29.88,NW,315,0.0,3.0,53,0.00,,---,0.00,VWS V14.00,2013-04-04 23:30:00,
2013-04-04 18:33:00,52.8,36.2,29.88,NNW,348,2.0,2.0,53,0.00,,---,0.00,VWS V14.00,2013-04-04 23:33:00,
2013-04-04 18:35:00,52.7,36.1,29.89,West,280,1.0,2.0,53,0.00,,---,0.00,VWS V14.00,2013-04-04 23:35:00,
2013-04-04 18:38:00,52.8,35.2,29.89,WNW,303,0.0,6.0,51,0.00,,---,0.00,VWS V14.00,2013-04-04 23:38:00,
2013-04-04 18:40:00,52.8,34.7,29.88,NW,314,1.0,6.0,50,0.00,,---,0.00,VWS V14.00,2013-04-04 23:40:00,
2013-04-04 18:43:00,52.8,34.7,29.88,NNW,331,5.0,5.0,50,0.00,,---,0.00,VWS V14.00,2013-04-04 23:43:00,
2013-04-04 18:45:00,52.7,34.6,29.89,NW,319,3.0,6.0,50,0.00,,---,0.00,VWS V14.00,2013-04-04 23:45:00,
2013-04-04 18:48:00,52.6,34.5,29.89,NW,314,0.0,3.0,50,0.00,,---,0.00,VWS V14.00,2013-04-04 23:48:00,
2013-04-04 18:50:00,52.4,33.8,29.89,NNW,329,1.0,3.0,49,0.00,,---,0.00,VWS V14.00,2013-04-04 23:50:00,
2013-04-04 18:53:00,52.3,33.7,29.89,NW,321,6.0,6.0,49,0.00,,---,0.00,VWS V14.00,2013-04-04 23:53:00,
2013-04-04 18:55:00,52.2,33.1,29.89,NW,313,0.0,6.0,48,0.00,,---,0.00,VWS V14.00,2013-04-04 23:55:00,
2013-04-04 18:58:00,52.0,31.9,29.89,WNW,284,0.0,4.0,46,0.00,,---,0.00,VWS V14.00,2013-04-04 23:58:00,
2013-04-04 19:00:00,51.9,31.8,29.89,North,349,3.0,4.0,46,0.00,,---,0.00,VWS V14.00,2013-04-05 00:00:00,
2013-04-04 19:03:00,51.7,31.6,29.88,NW,317,0.0,6.0,46,0.00,,---,0.00,VWS V14.00,2013-04-05 00:03:00,
2013-04-04 19:05:00,51.6,31.5,29.89,NNW,329,2.0,6.0,46,0.00,,---,0.00,VWS V14.00,2013-04-05 00:05:00,
2013-04-04 19:08:00,51.4,31.3,29.89,NW,323,0.0,6.0,46,0.00,,---,0.00,VWS V14.00,2013-04-05 00:08:00,
2013-04-04 19:10:00,51.3,31.8,29.89,NW,325,0.0,6.0,47,0.00,,---,0.00,VWS V14.00,2013-04-05 00:10:00,
2013-04-04 19:13:00,51.1,32.1,29.89,NW,318,7.0,7.0,48,0.00,,---,0.00,VWS V14.00,2013-04-05 00:13:00,
2013-04-04 19:15:00,50.8,32.8,29.89,NW,322,4.0,7.0,50,0.00,,---,0.00,VWS V14.00,2013-04-05 00:15:00,
2013-04-04 19:18:00,50.6,33.2,29.89,NW,325,0.0,4.0,51,0.00,,---,0.00,VWS V14.00,2013-04-05 00:18:00,
2013-04-04 19:20:00,50.4,33.5,29.89,NNW,340,0.0,4.0,52,0.00,,---,0.00,VWS V14.00,2013-04-05 00:20:00,
2013-04-04 19:23:00,50.1,33.7,29.89,NW,326,3.0,4.0,53,0.00,,---,0.00,VWS V14.00,2013-04-05 00:23:00,
2013-04-04 19:25:00,50.0,33.6,29.89,NNW,346,0.0,4.0,53,0.00,,---,0.00,VWS V14.00,2013-04-05 00:25:00,
2013-04-04 19:28:00,49.8,33.8,29.89,NW,319,5.0,6.0,54,0.00,,---,0.00,VWS V14.00,2013-04-05 00:28:00,
2013-04-04 19:30:00,49.6,33.7,29.89,NNW,329,3.0,6.0,54,0.00,,---,0.00,VWS V14.00,2013-04-05 00:30:00,
2013-04-04 19:33:00,49.5,34.0,29.89,NW,323,1.0,9.0,55,0.00,,---,0.00,VWS V14.00,2013-04-05 00:33:00,
2013-04-04 19:35:00,49.4,33.9,29.89,NNW,328,0.0,9.0,55,0.00,,---,0.00,VWS V14.00,2013-04-05 00:35:00,
2013-04-04 19:38:00,49.1,33.7,29.89,NNW,338,0.0,7.0,55,0.00,,---,0.00,VWS V14.00,2013-04-05 00:38:00,
2013-04-04 19:40:00,48.9,33.9,29.89,NW,323,0.0,7.0,56,0.00,,---,0.00,VWS V14.00,2013-04-05 00:40:00,
2013-04-04 19:43:00,48.6,33.6,29.89,NNW,328,2.0,3.0,56,0.00,,---,0.00,VWS V14.00,2013-04-05 00:43:00,
2013-04-04 19:45:00,48.5,34.0,29.89,NNW,328,0.0,3.0,57,0.00,,---,0.00,VWS V14.00,2013-04-05 00:45:00,
2013-04-04 19:48:00,48.3,33.8,29.89,NNW,327,0.0,0.0,57,0.00,,---,0.00,VWS V14.00,2013-04-05 00:48:00,
2013-04-04 19:50:00,48.2,33.7,29.89,NNW,327,0.0,0.0,57,0.00,,---,0.00,VWS V14.00,2013-04-05 00:50:00,
2013-04-04 19:53:00,47.9,33.8,29.89,NNW,327,0.0,0.0,58,0.00,,---,0.00,VWS V14.00,2013-04-05 00:53:00,
2013-04-04 19:55:00,47.7,33.7,29.90,NNW,327,0.0,0.0,58,0.00,,---,0.00,VWS V14.00,2013-04-05 00:55:00,
2013-04-04 19:58:00,47.4,33.8,29.90,NNW,327,0.0,0.0,59,0.00,,---,0.00,VWS V14.00,2013-04-05 00:58:00,
2013-04-04 20:00:00,47.0,33.4,29.90,NNW,327,0.0,0.0,59,0.00,,---,0.00,VWS V14.00,2013-04-05 01:00:00,
2013-04-04 20:03:00,46.5,33.4,29.90,NNW,327,0.0,0.0,60,0.00,,---,0.00,VWS V14.00,2013-04-05 01:03:00,
2013-04-04 20:05:00,46.3,33.6,29.90,NNW,327,1.0,1.0,61,0.00,,---,0.00,VWS V14.00,2013-04-05 01:05:00,
2013-04-04 20:08:00,45.9,33.2,29.90,NNW,327,0.0,1.0,61,0.00,,---,0.00,VWS V14.00,2013-04-05 01:08:00,
2013-04-04 20:10:00,45.6,33.3,29.90,NNW,327,0.0,1.0,62,0.00,,---,0.00,VWS V14.00,2013-04-05 01:10:00,
2013-04-04 20:13:00,45.1,33.3,29.90,NNW,327,0.0,0.0,63,0.00,,---,0.00,VWS V14.00,2013-04-05 01:13:00,
2013-04-04 20:15:00,44.9,33.1,29.90,NNW,327,0.0,0.0,63,0.00,,---,0.00,VWS V14.00,2013-04-05 01:15:00,
2013-04-04 20:18:00,44.6,33.2,29.90,NNW,327,0.0,0.0,64,0.00,,---,0.00,VWS V14.00,2013-04-05 01:18:00,
2013-04-04 20:20:00,44.4,33.0,29.90,NNW,327,0.0,0.0,64,0.00,,---,0.00,VWS V14.00,2013-04-05 01:20:00,
2013-04-04 20:23:00,44.1,33.1,29.91,NNW,327,0.0,0.0,65,0.00,,---,0.00,VWS V14.00,2013-04-05 01:23:00,
2013-04-04 20:25:00,43.9,32.9,29.91,NNW,327,0.0,0.0,65,0.00,,---,0.00,VWS V14.00,2013-04-05 01:25:00,
2013-04-04 20:28:00,43.7,33.1,29.91,NNW,327,0.0,0.0,66,0.00,,---,0.00,VWS V14.00,2013-04-05 01:28:00,
2013-04-04 20:30:00,43.6,33.0,29.91,NNW,327,0.0,0.0,66,0.00,,---,0.00,VWS V14.00,2013-04-05 01:30:00,
2013-04-04 20:33:00,43.5,33.3,29.91,NNW,327,0.0,0.0,67,0.00,,---,0.00,VWS V14.00,2013-04-05 01:33:00,
2013-04-04 20:35:00,43.3,33.1,29.91,NNW,327,0.0,0.0,67,0.00,,---,0.00,VWS V14.00,2013-04-05 01:35:00,
2013-04-04 20:38:00,43.1,32.9,29.91,NNW,327,0.0,0.0,67,0.00,,---,0.00,VWS V14.00,2013-04-05 01:38:00,
2013-04-04 20:40:00,43.0,33.2,29.91,NNW,327,0.0,0.0,68,0.00,,---,0.00,VWS V14.00,2013-04-05 01:40:00,
2013-04-04 20:43:00,42.9,33.1,29.91,NNW,327,0.0,0.0,68,0.00,,---,0.00,VWS V14.00,2013-04-05 01:43:00,
2013-04-04 20:45:00,42.8,33.3,29.92,NNW,327,0.0,0.0,69,0.00,,---,0.00,VWS V14.00,2013-04-05 01:45:00,
2013-04-04 20:48:00,42.7,33.2,29.92,NNW,327,0.0,0.0,69,0.00,,---,0.00,VWS V14.00,2013-04-05 01:48:00,
2013-04-04 20:50:00,42.7,33.2,29.92,NNW,327,0.0,0.0,69,0.00,,---,0.00,VWS V14.00,2013-04-05 01:50:00,
2013-04-04 20:53:00,42.6,33.2,29.92,NNW,327,0.0,0.0,69,0.00,,---,0.00,VWS V14.00,2013-04-05 01:53:00,
2013-04-04 20:55:00,42.5,33.1,29.92,NNW,327,0.0,0.0,69,0.00,,---,0.00,VWS V14.00,2013-04-05 01:55:00,
2013-04-04 20:58:00,42.5,33.4,29.92,NNW,327,0.0,0.0,70,0.00,,---,0.00,VWS V14.00,2013-04-05 01:58:00,
2013-04-04 21:00:00,42.3,32.9,29.92,NNW,327,0.0,0.0,69,0.00,,---,0.00,VWS V14.00,2013-04-05 02:00:00,
2013-04-04 21:03:00,42.1,33.0,29.92,NNW,327,0.0,0.0,70,0.00,,---,0.00,VWS V14.00,2013-04-05 02:03:00,
2013-04-04 21:05:00,42.0,32.9,29.92,NNW,327,0.0,0.0,70,0.00,,---,0.00,VWS V14.00,2013-04-05 02:05:00,
2013-04-04 21:08:00,41.8,32.8,29.92,NNW,327,0.0,0.0,70,0.00,,---,0.00,VWS V14.00,2013-04-05 02:08:00,
2013-04-04 21:10:00,41.8,33.1,29.92,NNW,327,0.0,0.0,71,0.00,,---,0.00,VWS V14.00,2013-04-05 02:10:00,
2013-04-04 21:13:00,41.7,33.0,29.92,NNW,327,0.0,0.0,71,0.00,,---,0.00,VWS V14.00,2013-04-05 02:13:00,
2013-04-04 21:15:00,41.8,33.1,29.93,NNW,327,0.0,0.0,71,0.00,,---,0.00,VWS V14.00,2013-04-05 02:15:00,
2013-04-04 21:19:00,41.8,32.8,29.93,NNW,327,0.0,0.0,70,0.00,,---,0.00,VWS V14.00,2013-04-05 02:19:00,
2013-04-04 21:20:00,41.7,33.0,29.93,NNW,327,0.0,0.0,71,0.00,,---,0.00,VWS V14.00,2013-04-05 02:20:00,
2013-04-04 21:24:00,41.6,32.6,29.93,NNW,327,0.0,0.0,70,0.00,,---,0.00,VWS V14.00,2013-04-05 02:24:00,
2013-04-04 21:25:00,41.5,32.8,29.93,NNW,327,0.0,0.0,71,0.00,,---,0.00,VWS V14.00,2013-04-05 02:25:00,
2013-04-04 21:29:00,41.4,32.7,29.93,NNW,327,0.0,0.0,71,0.00,,---,0.00,VWS V14.00,2013-04-05 02:29:00,
2013-04-04 21:30:00,41.4,32.7,29.93,NNW,327,0.0,0.0,71,0.00,,---,0.00,VWS V14.00,2013-04-05 02:30:00,
2013-04-04 21:34:00,41.5,32.5,29.93,NNW,327,2.0,2.0,70,0.00,,---,0.00,VWS V14.00,2013-04-05 02:34:00,
2013-04-04 21:35:00,41.4,32.4,29.93,NNW,346,0.0,2.0,70,0.00,,---,0.00,VWS V14.00,2013-04-05 02:35:00,
2013-04-04 21:39:00,41.7,32.3,29.93,NNW,346,0.0,0.0,69,0.00,,---,0.00,VWS V14.00,2013-04-05 02:39:00,
2013-04-04 21:40:00,41.8,32.4,29.93,NNW,345,0.0,0.0,69,0.00,,---,0.00,VWS V14.00,2013-04-05 02:40:00,
2013-04-04 21:44:00,41.7,32.3,29.93,NNW,345,0.0,0.0,69,0.00,,---,0.00,VWS V14.00,2013-04-05 02:44:00,
2013-04-04 21:45:00,41.6,32.2,29.94,NNW,346,0.0,0.0,69,0.00,,---,0.00,VWS V14.00,2013-04-05 02:45:00,
2013-04-04 21:49:00,41.3,31.9,29.94,NW,310,0.0,3.0,69,0.00,,---,0.00,VWS V14.00,2013-04-05 02:49:00,
2013-04-04 21:50:00,41.3,31.9,29.94,NW,311,0.0,3.0,69,0.00,,---,0.00,VWS V14.00,2013-04-05 02:50:00,
2013-04-04 21:54:00,41.2,31.8,29.94,NW,315,4.0,4.0,69,0.00,,---,0.00,VWS V14.00,2013-04-05 02:54:00,
2013-04-04 21:55:00,41.2,31.8,29.94,NNW,342,3.0,4.0,69,0.00,,---,0.00,VWS V14.00,2013-04-05 02:55:00,
2013-04-04 21:59:00,41.6,31.8,29.94,NW,320,0.0,6.0,68,0.00,,---,0.00,VWS V14.00,2013-04-05 02:59:00,
2013-04-04 22:00:00,41.6,31.8,29.94,NW,319,0.0,6.0,68,0.00,,---,0.00,VWS V14.00,2013-04-05 03:00:00,
2013-04-04 22:04:00,41.7,31.9,29.94,NW,319,1.0,2.0,68,0.00,,---,0.00,VWS V14.00,2013-04-05 03:04:00,
2013-04-04 22:05:00,41.8,31.7,29.94,NW,320,0.0,2.0,67,0.00,,---,0.00,VWS V14.00,2013-04-05 03:05:00,
2013-04-04 22:09:00,41.8,31.7,29.94,NW,319,0.0,0.0,67,0.00,,---,0.00,VWS V14.00,2013-04-05 03:09:00,
2013-04-04 22:10:00,41.8,31.7,29.94,NW,319,0.0,0.0,67,0.00,,---,0.00,VWS V14.00,2013-04-05 03:10:00,
2013-04-04 22:14:00,41.7,31.6,29.94,NW,319,0.0,2.0,67,0.00,,---,0.00,VWS V14.00,2013-04-05 03:14:00,
2013-04-04 22:15:00,41.7,31.6,29.94,NW,319,0.0,2.0,67,0.00,,---,0.00,VWS V14.00,2013-04-05 03:15:00,
2013-04-04 22:19:00,41.5,31.4,29.94,NW,318,0.0,1.0,67,0.00,,---,0.00,VWS V14.00,2013-04-05 03:19:00,
2013-04-04 22:20:00,41.5,31.4,29.94,NW,318,0.0,1.0,67,0.00,,---,0.00,VWS V14.00,2013-04-05 03:20:00,
2013-04-04 22:24:00,41.6,31.5,29.94,NW,307,0.0,3.0,67,0.00,,---,0.00,VWS V14.00,2013-04-05 03:24:00,
2013-04-04 22:25:00,41.6,31.5,29.94,NW,307,0.0,3.0,67,0.00,,---,0.00,VWS V14.00,2013-04-05 03:25:00,
2013-04-04 22:29:00,41.5,31.0,29.94,NNW,336,0.0,2.0,66,0.00,,---,0.00,VWS V14.00,2013-04-05 03:29:00,
2013-04-04 22:30:00,41.5,31.4,29.94,NNW,336,0.0,2.0,67,0.00,,---,0.00,VWS V14.00,2013-04-05 03:30:00,
2013-04-04 22:34:00,41.0,30.9,29.94,NNW,336,0.0,0.0,67,0.00,,---,0.00,VWS V14.00,2013-04-05 03:34:00,
2013-04-04 22:35:00,40.9,30.8,29.95,NNW,336,0.0,0.0,67,0.00,,---,0.00,VWS V14.00,2013-04-05 03:35:00,
2013-04-04 22:39:00,40.5,30.8,29.95,NNW,336,0.0,0.0,68,0.00,,---,0.00,VWS V14.00,2013-04-05 03:39:00,
2013-04-04 22:40:00,40.4,30.7,29.95,NNW,336,0.0,0.0,68,0.00,,---,0.00,VWS V14.00,2013-04-05 03:40:00,
2013-04-04 22:44:00,40.0,30.7,29.95,NNW,336,0.0,0.0,69,0.00,,---,0.00,VWS V14.00,2013-04-05 03:44:00,
2013-04-04 22:45:00,39.9,30.6,29.95,NNW,336,0.0,0.0,69,0.00,,---,0.00,VWS V14.00,2013-04-05 03:45:00,
2013-04-04 22:49:00,39.6,30.6,29.95,NNW,336,0.0,1.0,70,0.00,,---,0.00,VWS V14.00,2013-04-05 03:49:00,
2013-04-04 22:50:00,39.6,30.6,29.95,NNW,336,0.0,1.0,70,0.00,,---,0.00,VWS V14.00,2013-04-05 03:50:00,
2013-04-04 22:54:00,39.4,30.4,29.95,NNW,336,0.0,0.0,70,0.00,,---,0.00,VWS V14.00,2013-04-05 03:54:00,
2013-04-04 22:55:00,39.4,30.4,29.95,NNW,336,0.0,0.0,70,0.00,,---,0.00,VWS V14.00,2013-04-05 03:55:00,
2013-04-04 22:59:00,39.3,30.4,29.95,NNW,336,0.0,0.0,70,0.00,,---,0.00,VWS V14.00,2013-04-05 03:59:00,
2013-04-04 23:00:00,39.3,30.4,29.95,NNW,336,0.0,0.0,70,0.00,,---,0.00,VWS V14.00,2013-04-05 04:00:00,
2013-04-04 23:02:00,39.2,30.6,29.95,NNW,336,0.0,0.0,71,0.00,,---,0.00,VWS V14.00,2013-04-05 04:02:00,
2013-04-04 23:05:00,39.2,30.6,29.95,NNW,336,0.0,0.0,71,0.00,,---,0.00,VWS V14.00,2013-04-05 04:05:00,
2013-04-04 23:06:00,39.2,30.6,29.95,NNW,336,0.0,0.0,71,0.00,,---,0.00,VWS V14.00,2013-04-05 04:06:00,
2013-04-04 23:10:00,39.1,30.2,29.95,NNW,336,0.0,0.0,70,0.00,,---,0.00,VWS V14.00,2013-04-05 04:10:00,
2013-04-04 23:12:00,39.0,30.4,29.95,NNW,336,0.0,1.0,71,0.00,,---,0.00,VWS V14.00,2013-04-05 04:12:00,
2013-04-04 23:15:00,38.9,30.3,29.95,NNW,336,0.0,1.0,71,0.00,,---,0.00,VWS V14.00,2013-04-05 04:15:00,
2013-04-04 23:17:00,38.8,30.2,29.95,NNW,336,0.0,0.0,71,0.00,,---,0.00,VWS V14.00,2013-04-05 04:17:00,
2013-04-04 23:20:00,38.7,30.1,29.95,NNW,336,0.0,0.0,71,0.00,,---,0.00,VWS V14.00,2013-04-05 04:20:00,
2013-04-04 23:22:00,38.7,30.1,29.95,NNW,336,0.0,0.0,71,0.00,,---,0.00,VWS V14.00,2013-04-05 04:22:00,
2013-04-04 23:25:00,38.6,30.0,29.96,NNW,336,1.0,1.0,71,0.00,,---,0.00,VWS V14.00,2013-04-05 04:25:00,
2013-04-04 23:27:00,38.6,30.4,29.96,NNW,336,0.0,1.0,72,0.00,,---,0.00,VWS V14.00,2013-04-05 04:27:00,
2013-04-04 23:30:00,38.5,30.3,29.96,NNW,336,0.0,1.0,72,0.00,,---,0.00,VWS V14.00,2013-04-05 04:30:00,
2013-04-04 23:32:00,38.4,30.2,29.96,NNW,336,0.0,0.0,72,0.00,,---,0.00,VWS V14.00,2013-04-05 04:32:00,
2013-04-04 23:35:00,38.5,30.3,29.96,NNW,336,0.0,0.0,72,0.00,,---,0.00,VWS V14.00,2013-04-05 04:35:00,
2013-04-04 23:37:00,38.6,30.4,29.96,NNW,336,0.0,0.0,72,0.00,,---,0.00,VWS V14.00,2013-04-05 04:37:00,
2013-04-04 23:40:00,38.5,30.3,29.96,NNW,336,0.0,0.0,72,0.00,,---,0.00,VWS V14.00,2013-04-05 04:40:00,
2013-04-04 23:42:00,38.5,30.3,29.96,NNW,336,0.0,0.0,72,0.00,,---,0.00,VWS V14.00,2013-04-05 04:42:00,
2013-04-04 23:45:00,38.4,30.2,29.96,NNW,336,0.0,0.0,72,0.00,,---,0.00,VWS V14.00,2013-04-05 04:45:00,
2013-04-04 23:47:00,38.2,30.0,29.96,NNW,336,0.0,0.0,72,0.00,,---,0.00,VWS V14.00,2013-04-05 04:47:00,
2013-04-04 23:50:00,38.1,30.2,29.96,NNW,336,0.0,0.0,73,0.00,,---,0.00,VWS V14.00,2013-04-05 04:50:00,
2013-04-04 23:52:00,38.1,30.2,29.96,NNW,336,0.0,0.0,73,0.00,,---,0.00,VWS V14.00,2013-04-05 04:52:00,
2013-04-04 23:55:00,38.1,30.2,29.96,NNW,336,0.0,0.0,73,0.00,,---,0.00,VWS V14.00,2013-04-05 04:55:00,
2013-04-04 23:57:00,38.1,30.2,29.96,NNW,336,0.0,0.0,73,0.00,,---,0.00,VWS V14.00,2013-04-05 04:57:00,